sensor_id;sensor_type;location;lat;lon;timestamp;temperature;humidity
59282;DHT22;45054;52.062;10.010;2023-04-15T00:01:33;6.90;99.90
59282;DHT22;45054;52.062;10.010;2023-04-15T00:03:59;6.80;99.90
59282;DHT22;45054;52.062;10.010;2023-04-15T00:06:24;6.80;99.90
59282;DHT22;45054;52.062;10.010;2023-04-15T00:08:49;6.80;99.90
59282;DHT22;45054;52.062;10.010;2023-04-15T00:11:15;6.80;99.90
59282;DHT22;45054;52.062;10.010;2023-04-15T00:13:41;6.90;99.90
59282;DHT22;45054;52.062;10.010;2023-04-15T00:16:08;6.90;99.90
59282;DHT22;45054;52.062;10.010;2023-04-15T00:18:34;6.80;99.90
59282;DHT22;45054;52.062;10.010;2023-04-15T00:20:59;6.90;99.90
59282;DHT22;45054;52.062;10.010;2023-04-15T00:23:25;6.80;99.90
59282;DHT22;45054;52.062;10.010;2023-04-15T00:25:51;6.90;99.90
59282;DHT22;45054;52.062;10.010;2023-04-15T00:28:16;6.90;99.90
59282;DHT22;45054;52.062;10.010;2023-04-15T00:30:42;6.90;99.90
59282;DHT22;45054;52.062;10.010;2023-04-15T00:33:08;6.90;99.90
59282;DHT22;45054;52.062;10.010;2023-04-15T00:35:34;6.90;99.90
59282;DHT22;45054;52.062;10.010;2023-04-15T00:37:59;6.90;99.90
59282;DHT22;45054;52.062;10.010;2023-04-15T00:40:25;6.90;99.90
59282;DHT22;45054;52.062;10.010;2023-04-15T00:42:50;6.90;99.90
59282;DHT22;45054;52.062;10.010;2023-04-15T00:45:16;6.90;99.90
59282;DHT22;45054;52.062;10.010;2023-04-15T00:47:41;6.90;99.90
59282;DHT22;45054;52.062;10.010;2023-04-15T00:50:09;6.90;99.90
59282;DHT22;45054;52.062;10.010;2023-04-15T00:52:35;6.90;99.90
59282;DHT22;45054;52.062;10.010;2023-04-15T00:55:00;6.90;99.90
59282;DHT22;45054;52.062;10.010;2023-04-15T00:57:26;6.90;99.90
59282;DHT22;45054;52.062;10.010;2023-04-15T00:59:52;6.90;99.90
59282;DHT22;45054;52.062;10.010;2023-04-15T01:02:18;6.80;99.90
59282;DHT22;45054;52.062;10.010;2023-04-15T01:04:44;6.80;99.90
59282;DHT22;45054;52.062;10.010;2023-04-15T01:07:11;6.80;99.90
59282;DHT22;45054;52.062;10.010;2023-04-15T01:09:36;6.80;99.90
59282;DHT22;45054;52.062;10.010;2023-04-15T01:12:02;6.80;99.90
59282;DHT22;45054;52.062;10.010;2023-04-15T01:14:28;6.80;99.90
59282;DHT22;45054;52.062;10.010;2023-04-15T01:16:54;6.90;99.90
59282;DHT22;45054;52.062;10.010;2023-04-15T01:19:19;6.80;99.90
59282;DHT22;45054;52.062;10.010;2023-04-15T01:21:45;6.90;99.90
59282;DHT22;45054;52.062;10.010;2023-04-15T01:24:11;6.90;99.90
59282;DHT22;45054;52.062;10.010;2023-04-15T01:26:39;6.90;99.90
59282;DHT22;45054;52.062;10.010;2023-04-15T01:29:04;6.80;99.90
59282;DHT22;45054;52.062;10.010;2023-04-15T01:31:30;6.90;99.90
59282;DHT22;45054;52.062;10.010;2023-04-15T01:33:55;6.90;99.90
59282;DHT22;45054;52.062;10.010;2023-04-15T01:36:21;6.90;99.90
59282;DHT22;45054;52.062;10.010;2023-04-15T01:38:46;6.90;99.90
59282;DHT22;45054;52.062;10.010;2023-04-15T01:41:12;6.90;99.90
59282;DHT22;45054;52.062;10.010;2023-04-15T01:43:39;6.90;99.90
59282;DHT22;45054;52.062;10.010;2023-04-15T01:46:04;6.90;99.90
59282;DHT22;45054;52.062;10.010;2023-04-15T01:48:29;6.80;99.90
59282;DHT22;45054;52.062;10.010;2023-04-15T01:50:55;6.90;99.90
59282;DHT22;45054;52.062;10.010;2023-04-15T01:53:20;6.90;99.90
59282;DHT22;45054;52.062;10.010;2023-04-15T01:55:46;6.80;99.90
59282;DHT22;45054;52.062;10.010;2023-04-15T01:58:11;6.90;99.90
59282;DHT22;45054;52.062;10.010;2023-04-15T02:00:38;6.90;99.90
59282;DHT22;45054;52.062;10.010;2023-04-15T02:03:03;6.90;99.90
59282;DHT22;45054;52.062;10.010;2023-04-15T02:05:29;6.80;99.90
59282;DHT22;45054;52.062;10.010;2023-04-15T02:07:54;6.80;99.90
59282;DHT22;45054;52.062;10.010;2023-04-15T02:10:20;6.80;99.90
59282;DHT22;45054;52.062;10.010;2023-04-15T02:12:45;6.80;99.90
59282;DHT22;45054;52.062;10.010;2023-04-15T02:15:11;6.90;99.90
59282;DHT22;45054;52.062;10.010;2023-04-15T02:17:37;6.90;99.90
59282;DHT22;45054;52.062;10.010;2023-04-15T02:20:03;6.80;99.90
59282;DHT22;45054;52.062;10.010;2023-04-15T02:22:29;6.80;99.90
59282;DHT22;45054;52.062;10.010;2023-04-15T02:24:54;6.80;99.90
59282;DHT22;45054;52.062;10.010;2023-04-15T02:27:19;6.80;99.90
59282;DHT22;45054;52.062;10.010;2023-04-15T02:29:45;6.80;99.90
59282;DHT22;45054;52.062;10.010;2023-04-15T02:32:10;6.80;99.90
59282;DHT22;45054;52.062;10.010;2023-04-15T02:34:37;6.80;99.90
59282;DHT22;45054;52.062;10.010;2023-04-15T02:37:04;6.80;99.90
59282;DHT22;45054;52.062;10.010;2023-04-15T02:39:30;6.80;99.90
59282;DHT22;45054;52.062;10.010;2023-04-15T02:41:55;6.80;99.90
59282;DHT22;45054;52.062;10.010;2023-04-15T02:44:21;6.80;99.90
59282;DHT22;45054;52.062;10.010;2023-04-15T02:46:46;6.90;99.90
59282;DHT22;45054;52.062;10.010;2023-04-15T02:49:12;6.90;99.90
59282;DHT22;45054;52.062;10.010;2023-04-15T02:51:38;6.90;99.90
59282;DHT22;45054;52.062;10.010;2023-04-15T02:54:04;6.90;99.90
59282;DHT22;45054;52.062;10.010;2023-04-15T02:56:29;6.90;99.90
59282;DHT22;45054;52.062;10.010;2023-04-15T02:58:55;6.90;99.90
59282;DHT22;45054;52.062;10.010;2023-04-15T03:01:20;6.90;99.90
59282;DHT22;45054;52.062;10.010;2023-04-15T03:03:46;6.90;99.90
59282;DHT22;45054;52.062;10.010;2023-04-15T03:06:11;6.90;99.90
59282;DHT22;45054;52.062;10.010;2023-04-15T03:08:38;7.00;99.90
59282;DHT22;45054;52.062;10.010;2023-04-15T03:11:03;7.00;99.90
59282;DHT22;45054;52.062;10.010;2023-04-15T03:13:29;7.00;99.90
59282;DHT22;45054;52.062;10.010;2023-04-15T03:15:54;7.00;99.90
59282;DHT22;45054;52.062;10.010;2023-04-15T03:18:20;6.90;99.90
59282;DHT22;45054;52.062;10.010;2023-04-15T03:20:45;6.90;99.90
59282;DHT22;45054;52.062;10.010;2023-04-15T03:23:11;6.90;99.90
59282;DHT22;45054;52.062;10.010;2023-04-15T03:25:37;6.90;99.90
59282;DHT22;45054;52.062;10.010;2023-04-15T03:28:03;6.90;99.90
59282;DHT22;45054;52.062;10.010;2023-04-15T03:30:28;6.80;99.90
59282;DHT22;45054;52.062;10.010;2023-04-15T03:32:54;6.90;99.90
59282;DHT22;45054;52.062;10.010;2023-04-15T03:35:19;6.80;99.90
59282;DHT22;45054;52.062;10.010;2023-04-15T03:37:45;6.80;99.90
59282;DHT22;45054;52.062;10.010;2023-04-15T03:40:10;6.80;99.90
59282;DHT22;45054;52.062;10.010;2023-04-15T03:42:37;6.70;99.90
59282;DHT22;45054;52.062;10.010;2023-04-15T03:45:03;6.80;99.90
59282;DHT22;45054;52.062;10.010;2023-04-15T03:47:29;6.80;99.90
59282;DHT22;45054;52.062;10.010;2023-04-15T03:49:54;6.80;99.90
59282;DHT22;45054;52.062;10.010;2023-04-15T03:52:19;6.70;99.90
59282;DHT22;45054;52.062;10.010;2023-04-15T03:54:45;6.70;99.90
59282;DHT22;45054;52.062;10.010;2023-04-15T03:57:10;6.80;99.90
59282;DHT22;45054;52.062;10.010;2023-04-15T03:59:37;6.80;99.90
59282;DHT22;45054;52.062;10.010;2023-04-15T04:02:02;6.80;99.90
59282;DHT22;45054;52.062;10.010;2023-04-15T04:04:28;6.80;99.90
59282;DHT22;45054;52.062;10.010;2023-04-15T04:06:53;6.70;99.90
59282;DHT22;45054;52.062;10.010;2023-04-15T04:09:19;6.80;99.90
59282;DHT22;45054;52.062;10.010;2023-04-15T04:11:44;6.80;99.90
59282;DHT22;45054;52.062;10.010;2023-04-15T04:14:10;6.70;99.90
59282;DHT22;45054;52.062;10.010;2023-04-15T04:16:36;6.70;99.90
59282;DHT22;45054;52.062;10.010;2023-04-15T04:19:02;6.70;99.90
59282;DHT22;45054;52.062;10.010;2023-04-15T04:21:27;6.70;99.90
59282;DHT22;45054;52.062;10.010;2023-04-15T04:23:53;6.70;99.90
59282;DHT22;45054;52.062;10.010;2023-04-15T04:26:18;6.70;99.90
59282;DHT22;45054;52.062;10.010;2023-04-15T04:28:46;6.70;99.90
59282;DHT22;45054;52.062;10.010;2023-04-15T04:31:11;6.70;99.90
59282;DHT22;45054;52.062;10.010;2023-04-15T04:33:38;6.70;99.90
59282;DHT22;45054;52.062;10.010;2023-04-15T04:36:04;6.70;99.90
59282;DHT22;45054;52.062;10.010;2023-04-15T04:38:29;6.70;99.90
59282;DHT22;45054;52.062;10.010;2023-04-15T04:40:55;6.60;99.90
59282;DHT22;45054;52.062;10.010;2023-04-15T04:43:20;6.60;99.90
59282;DHT22;45054;52.062;10.010;2023-04-15T04:45:46;6.60;99.90
59282;DHT22;45054;52.062;10.010;2023-04-15T04:48:11;6.60;99.90
59282;DHT22;45054;52.062;10.010;2023-04-15T04:50:38;6.60;99.90
59282;DHT22;45054;52.062;10.010;2023-04-15T04:53:03;6.60;99.90
59282;DHT22;45054;52.062;10.010;2023-04-15T04:55:29;6.60;99.90
59282;DHT22;45054;52.062;10.010;2023-04-15T04:57:54;6.70;99.90
59282;DHT22;45054;52.062;10.010;2023-04-15T05:00:20;6.70;99.90
59282;DHT22;45054;52.062;10.010;2023-04-15T05:02:45;6.60;99.90
59282;DHT22;45054;52.062;10.010;2023-04-15T05:05:11;6.60;99.90
59282;DHT22;45054;52.062;10.010;2023-04-15T05:07:38;6.60;99.90
59282;DHT22;45054;52.062;10.010;2023-04-15T05:10:03;6.60;99.90
59282;DHT22;45054;52.062;10.010;2023-04-15T05:12:29;6.60;99.90
59282;DHT22;45054;52.062;10.010;2023-04-15T05:14:54;6.60;99.90
59282;DHT22;45054;52.062;10.010;2023-04-15T05:17:20;6.60;99.90
59282;DHT22;45054;52.062;10.010;2023-04-15T05:19:45;6.60;99.90
59282;DHT22;45054;52.062;10.010;2023-04-15T05:22:11;6.50;99.90
59282;DHT22;45054;52.062;10.010;2023-04-15T05:24:38;6.60;99.90
59282;DHT22;45054;52.062;10.010;2023-04-15T05:27:03;6.50;99.90
59282;DHT22;45054;52.062;10.010;2023-04-15T05:29:28;6.60;99.90
59282;DHT22;45054;52.062;10.010;2023-04-15T05:31:54;6.60;99.90
59282;DHT22;45054;52.062;10.010;2023-04-15T05:34:19;6.60;99.90
59282;DHT22;45054;52.062;10.010;2023-04-15T05:36:45;6.50;99.90
59282;DHT22;45054;52.062;10.010;2023-04-15T05:39:10;6.50;99.90
59282;DHT22;45054;52.062;10.010;2023-04-15T05:41:37;6.50;99.90
59282;DHT22;45054;52.062;10.010;2023-04-15T05:44:03;6.50;99.90
59282;DHT22;45054;52.062;10.010;2023-04-15T05:46:28;6.60;99.90
59282;DHT22;45054;52.062;10.010;2023-04-15T05:48:53;6.50;99.90
59282;DHT22;45054;52.062;10.010;2023-04-15T05:51:19;6.50;99.90
59282;DHT22;45054;52.062;10.010;2023-04-15T05:53:44;6.50;99.90
59282;DHT22;45054;52.062;10.010;2023-04-15T05:56:10;6.50;99.90
59282;DHT22;45054;52.062;10.010;2023-04-15T05:58:37;6.50;99.90
59282;DHT22;45054;52.062;10.010;2023-04-15T06:01:02;6.60;99.90
59282;DHT22;45054;52.062;10.010;2023-04-15T06:03:28;6.50;99.90
59282;DHT22;45054;52.062;10.010;2023-04-15T06:05:53;6.50;99.90
59282;DHT22;45054;52.062;10.010;2023-04-15T06:08:18;6.50;99.90
59282;DHT22;45054;52.062;10.010;2023-04-15T06:10:44;6.50;99.90
59282;DHT22;45054;52.062;10.010;2023-04-15T06:13:09;6.60;99.90
59282;DHT22;45054;52.062;10.010;2023-04-15T06:15:36;6.50;99.90
59282;DHT22;45054;52.062;10.010;2023-04-15T06:18:02;6.60;99.90
59282;DHT22;45054;52.062;10.010;2023-04-15T06:20:27;6.60;99.90
59282;DHT22;45054;52.062;10.010;2023-04-15T06:22:52;6.60;99.90
59282;DHT22;45054;52.062;10.010;2023-04-15T06:25:18;6.60;99.90
59282;DHT22;45054;52.062;10.010;2023-04-15T06:27:43;6.60;99.90
59282;DHT22;45054;52.062;10.010;2023-04-15T06:30:09;6.70;99.90
59282;DHT22;45054;52.062;10.010;2023-04-15T06:32:36;6.70;99.90
59282;DHT22;45054;52.062;10.010;2023-04-15T06:35:01;6.60;99.90
59282;DHT22;45054;52.062;10.010;2023-04-15T06:37:27;6.70;99.90
59282;DHT22;45054;52.062;10.010;2023-04-15T06:39:52;6.60;99.90
59282;DHT22;45054;52.062;10.010;2023-04-15T06:42:18;6.70;99.90
59282;DHT22;45054;52.062;10.010;2023-04-15T06:44:43;6.60;99.90
59282;DHT22;45054;52.062;10.010;2023-04-15T06:47:09;6.70;99.90
59282;DHT22;45054;52.062;10.010;2023-04-15T06:49:35;6.60;99.90
59282;DHT22;45054;52.062;10.010;2023-04-15T06:52:01;6.60;99.90
59282;DHT22;45054;52.062;10.010;2023-04-15T06:54:26;6.70;99.90
59282;DHT22;45054;52.062;10.010;2023-04-15T06:56:52;6.70;99.90
59282;DHT22;45054;52.062;10.010;2023-04-15T06:59:17;6.70;99.90
59282;DHT22;45054;52.062;10.010;2023-04-15T07:01:43;6.70;99.90
59282;DHT22;45054;52.062;10.010;2023-04-15T07:04:08;6.70;99.90
59282;DHT22;45054;52.062;10.010;2023-04-15T07:06:35;6.70;99.90
59282;DHT22;45054;52.062;10.010;2023-04-15T07:09:00;6.70;99.90
59282;DHT22;45054;52.062;10.010;2023-04-15T07:11:26;6.70;99.90
59282;DHT22;45054;52.062;10.010;2023-04-15T07:13:51;6.70;99.90
59282;DHT22;45054;52.062;10.010;2023-04-15T07:16:17;6.70;99.90
59282;DHT22;45054;52.062;10.010;2023-04-15T07:18:42;6.60;99.90
59282;DHT22;45054;52.062;10.010;2023-04-15T07:21:08;6.60;99.90
59282;DHT22;45054;52.062;10.010;2023-04-15T07:23:34;6.70;99.90
59282;DHT22;45054;52.062;10.010;2023-04-15T07:26:00;6.70;99.90
59282;DHT22;45054;52.062;10.010;2023-04-15T07:28:25;6.70;99.90
59282;DHT22;45054;52.062;10.010;2023-04-15T07:30:51;6.70;99.90
59282;DHT22;45054;52.062;10.010;2023-04-15T07:33:16;6.70;99.90
59282;DHT22;45054;52.062;10.010;2023-04-15T07:35:42;6.70;99.90
59282;DHT22;45054;52.062;10.010;2023-04-15T07:38:07;6.60;99.90
59282;DHT22;45054;52.062;10.010;2023-04-15T07:40:34;6.70;99.90
59282;DHT22;45054;52.062;10.010;2023-04-15T07:43:00;6.70;99.90
59282;DHT22;45054;52.062;10.010;2023-04-15T07:45:25;6.70;99.90
59282;DHT22;45054;52.062;10.010;2023-04-15T07:47:50;6.70;99.90
59282;DHT22;45054;52.062;10.010;2023-04-15T07:50:17;6.80;99.90
59282;DHT22;45054;52.062;10.010;2023-04-15T07:52:42;6.80;99.90
59282;DHT22;45054;52.062;10.010;2023-04-15T07:55:08;6.80;99.90
59282;DHT22;45054;52.062;10.010;2023-04-15T07:57:35;6.90;99.90
59282;DHT22;45054;52.062;10.010;2023-04-15T08:00:02;6.90;99.90
59282;DHT22;45054;52.062;10.010;2023-04-15T08:02:28;6.90;99.90
59282;DHT22;45054;52.062;10.010;2023-04-15T08:04:53;6.90;99.90
59282;DHT22;45054;52.062;10.010;2023-04-15T08:07:18;6.90;99.90
59282;DHT22;45054;52.062;10.010;2023-04-15T08:09:44;7.00;99.90
59282;DHT22;45054;52.062;10.010;2023-04-15T08:12:09;6.90;99.90
59282;DHT22;45054;52.062;10.010;2023-04-15T08:14:36;7.00;99.90
59282;DHT22;45054;52.062;10.010;2023-04-15T08:17:02;7.00;99.90
59282;DHT22;45054;52.062;10.010;2023-04-15T08:19:27;7.00;99.90
59282;DHT22;45054;52.062;10.010;2023-04-15T08:21:53;7.00;99.90
59282;DHT22;45054;52.062;10.010;2023-04-15T08:24:18;7.00;99.90
59282;DHT22;45054;52.062;10.010;2023-04-15T08:26:44;7.10;99.90
59282;DHT22;45054;52.062;10.010;2023-04-15T08:29:09;7.10;99.90
59282;DHT22;45054;52.062;10.010;2023-04-15T08:31:36;7.20;99.90
59282;DHT22;45054;52.062;10.010;2023-04-15T08:34:01;7.20;99.90
59282;DHT22;45054;52.062;10.010;2023-04-15T08:36:27;7.30;99.90
59282;DHT22;45054;52.062;10.010;2023-04-15T08:38:52;7.20;99.90
59282;DHT22;45054;52.062;10.010;2023-04-15T08:41:20;7.20;99.90
59282;DHT22;45054;52.062;10.010;2023-04-15T08:43:46;7.20;99.90
59282;DHT22;45054;52.062;10.010;2023-04-15T08:46:13;7.20;99.90
59282;DHT22;45054;52.062;10.010;2023-04-15T08:48:40;7.10;99.90
59282;DHT22;45054;52.062;10.010;2023-04-15T08:51:06;7.10;99.90
59282;DHT22;45054;52.062;10.010;2023-04-15T08:53:32;7.10;99.90
59282;DHT22;45054;52.062;10.010;2023-04-15T08:55:58;7.20;99.90
59282;DHT22;45054;52.062;10.010;2023-04-15T08:58:24;7.10;99.90
59282;DHT22;45054;52.062;10.010;2023-04-15T09:00:49;7.20;99.90
59282;DHT22;45054;52.062;10.010;2023-04-15T09:03:15;7.30;99.90
59282;DHT22;45054;52.062;10.010;2023-04-15T09:05:42;7.20;99.90
59282;DHT22;45054;52.062;10.010;2023-04-15T09:08:08;7.20;99.90
59282;DHT22;45054;52.062;10.010;2023-04-15T09:10:33;7.10;99.90
59282;DHT22;45054;52.062;10.010;2023-04-15T09:12:59;7.10;99.90
59282;DHT22;45054;52.062;10.010;2023-04-15T09:15:25;7.20;99.90
59282;DHT22;45054;52.062;10.010;2023-04-15T09:17:50;7.20;99.90
59282;DHT22;45054;52.062;10.010;2023-04-15T09:20:16;7.30;99.90
59282;DHT22;45054;52.062;10.010;2023-04-15T09:22:44;7.40;99.90
59282;DHT22;45054;52.062;10.010;2023-04-15T09:25:25;7.40;99.90
59282;DHT22;45054;52.062;10.010;2023-04-15T09:27:51;7.40;99.90
59282;DHT22;45054;52.062;10.010;2023-04-15T09:30:17;7.40;99.90
59282;DHT22;45054;52.062;10.010;2023-04-15T09:32:47;7.50;99.90
59282;DHT22;45054;52.062;10.010;2023-04-15T09:35:13;7.50;99.90
59282;DHT22;45054;52.062;10.010;2023-04-15T09:37:38;7.50;99.90
59282;DHT22;45054;52.062;10.010;2023-04-15T09:40:06;7.40;99.90
59282;DHT22;45054;52.062;10.010;2023-04-15T09:42:32;7.30;99.90
59282;DHT22;45054;52.062;10.010;2023-04-15T09:45:06;7.30;99.90
59282;DHT22;45054;52.062;10.010;2023-04-15T09:47:32;7.40;99.90
59282;DHT22;45054;52.062;10.010;2023-04-15T09:49:58;7.40;99.90
59282;DHT22;45054;52.062;10.010;2023-04-15T09:52:23;7.40;99.90
59282;DHT22;45054;52.062;10.010;2023-04-15T09:54:50;7.40;99.90
59282;DHT22;45054;52.062;10.010;2023-04-15T09:57:18;7.40;99.90
59282;DHT22;45054;52.062;10.010;2023-04-15T09:59:43;7.40;99.90
59282;DHT22;45054;52.062;10.010;2023-04-15T10:02:10;7.40;99.90
59282;DHT22;45054;52.062;10.010;2023-04-15T10:04:38;7.40;99.90
59282;DHT22;45054;52.062;10.010;2023-04-15T10:07:04;7.40;99.90
59282;DHT22;45054;52.062;10.010;2023-04-15T10:09:30;7.30;99.90
59282;DHT22;45054;52.062;10.010;2023-04-15T10:11:55;7.40;99.90
59282;DHT22;45054;52.062;10.010;2023-04-15T10:14:22;7.40;99.90
59282;DHT22;45054;52.062;10.010;2023-04-15T10:16:49;7.40;99.90
59282;DHT22;45054;52.062;10.010;2023-04-15T10:19:15;7.40;99.90
59282;DHT22;45054;52.062;10.010;2023-04-15T10:21:43;7.40;99.90
59282;DHT22;45054;52.062;10.010;2023-04-15T10:24:09;7.40;99.90
59282;DHT22;45054;52.062;10.010;2023-04-15T10:26:34;7.50;99.90
59282;DHT22;45054;52.062;10.010;2023-04-15T10:29:00;7.50;99.90
59282;DHT22;45054;52.062;10.010;2023-04-15T10:31:26;7.50;99.90
59282;DHT22;45054;52.062;10.010;2023-04-15T10:33:52;7.60;99.90
59282;DHT22;45054;52.062;10.010;2023-04-15T10:36:18;7.60;99.90
59282;DHT22;45054;52.062;10.010;2023-04-15T10:38:44;7.50;99.90
59282;DHT22;45054;52.062;10.010;2023-04-15T10:41:13;7.60;99.90
59282;DHT22;45054;52.062;10.010;2023-04-15T10:43:39;7.60;99.90
59282;DHT22;45054;52.062;10.010;2023-04-15T10:46:09;7.60;99.90
59282;DHT22;45054;52.062;10.010;2023-04-15T10:48:36;7.60;99.90
59282;DHT22;45054;52.062;10.010;2023-04-15T10:51:01;7.60;99.90
59282;DHT22;45054;52.062;10.010;2023-04-15T10:53:27;7.60;99.90
59282;DHT22;45054;52.062;10.010;2023-04-15T10:55:53;7.70;99.90
59282;DHT22;45054;52.062;10.010;2023-04-15T10:58:18;7.60;99.90
59282;DHT22;45054;52.062;10.010;2023-04-15T11:00:49;7.60;99.90
59282;DHT22;45054;52.062;10.010;2023-04-15T11:03:14;7.70;99.90
59282;DHT22;45054;52.062;10.010;2023-04-15T11:05:51;7.70;99.90
59282;DHT22;45054;52.062;10.010;2023-04-15T11:08:16;7.70;99.90
59282;DHT22;45054;52.062;10.010;2023-04-15T11:10:51;7.70;99.90
59282;DHT22;45054;52.062;10.010;2023-04-15T11:13:18;7.70;99.90
59282;DHT22;45054;52.062;10.010;2023-04-15T11:15:44;7.70;99.90
59282;DHT22;45054;52.062;10.010;2023-04-15T11:18:10;7.80;99.90
59282;DHT22;45054;52.062;10.010;2023-04-15T11:20:36;7.80;99.90
59282;DHT22;45054;52.062;10.010;2023-04-15T11:23:03;7.80;99.90
59282;DHT22;45054;52.062;10.010;2023-04-15T11:25:29;7.80;99.90
59282;DHT22;45054;52.062;10.010;2023-04-15T11:27:55;7.90;99.90
59282;DHT22;45054;52.062;10.010;2023-04-15T11:30:22;7.90;99.90
59282;DHT22;45054;52.062;10.010;2023-04-15T11:32:48;7.90;99.90
59282;DHT22;45054;52.062;10.010;2023-04-15T11:35:13;7.90;99.90
59282;DHT22;45054;52.062;10.010;2023-04-15T11:37:38;7.90;99.90
59282;DHT22;45054;52.062;10.010;2023-04-15T11:40:08;7.90;99.90
59282;DHT22;45054;52.062;10.010;2023-04-15T11:42:34;7.90;99.90
59282;DHT22;45054;52.062;10.010;2023-04-15T11:45:05;7.90;99.90
59282;DHT22;45054;52.062;10.010;2023-04-15T11:47:30;8.00;99.90
59282;DHT22;45054;52.062;10.010;2023-04-15T11:49:56;8.00;99.90
59282;DHT22;45054;52.062;10.010;2023-04-15T11:52:21;8.00;99.90
59282;DHT22;45054;52.062;10.010;2023-04-15T11:54:47;8.00;99.90
59282;DHT22;45054;52.062;10.010;2023-04-15T11:57:14;8.10;99.90
59282;DHT22;45054;52.062;10.010;2023-04-15T11:59:42;8.10;99.90
59282;DHT22;45054;52.062;10.010;2023-04-15T12:02:10;8.10;99.90
59282;DHT22;45054;52.062;10.010;2023-04-15T12:04:35;8.10;99.90
59282;DHT22;45054;52.062;10.010;2023-04-15T12:07:03;8.20;99.90
59282;DHT22;45054;52.062;10.010;2023-04-15T12:09:28;8.20;99.90
59282;DHT22;45054;52.062;10.010;2023-04-15T12:11:55;8.20;99.90
59282;DHT22;45054;52.062;10.010;2023-04-15T12:14:24;8.20;99.90
59282;DHT22;45054;52.062;10.010;2023-04-15T12:16:51;8.20;99.90
59282;DHT22;45054;52.062;10.010;2023-04-15T12:19:19;8.20;99.90
59282;DHT22;45054;52.062;10.010;2023-04-15T12:21:46;8.10;99.90
59282;DHT22;45054;52.062;10.010;2023-04-15T12:24:12;8.10;99.90
59282;DHT22;45054;52.062;10.010;2023-04-15T12:26:42;8.20;99.90
59282;DHT22;45054;52.062;10.010;2023-04-15T12:29:08;8.10;99.90
59282;DHT22;45054;52.062;10.010;2023-04-15T12:31:36;8.20;99.90
59282;DHT22;45054;52.062;10.010;2023-04-15T12:34:02;8.20;99.90
59282;DHT22;45054;52.062;10.010;2023-04-15T12:36:28;8.20;99.90
59282;DHT22;45054;52.062;10.010;2023-04-15T12:38:53;8.30;99.90
59282;DHT22;45054;52.062;10.010;2023-04-15T12:41:19;8.30;99.90
59282;DHT22;45054;52.062;10.010;2023-04-15T12:43:44;8.30;99.90
59282;DHT22;45054;52.062;10.010;2023-04-15T12:46:10;8.40;99.90
59282;DHT22;45054;52.062;10.010;2023-04-15T12:48:37;8.30;99.90
59282;DHT22;45054;52.062;10.010;2023-04-15T12:51:02;8.30;99.90
59282;DHT22;45054;52.062;10.010;2023-04-15T12:53:28;8.30;99.90
59282;DHT22;45054;52.062;10.010;2023-04-15T12:55:53;8.40;99.90
59282;DHT22;45054;52.062;10.010;2023-04-15T12:58:19;8.40;99.90
59282;DHT22;45054;52.062;10.010;2023-04-15T13:00:45;8.40;99.90
59282;DHT22;45054;52.062;10.010;2023-04-15T13:03:10;8.40;99.90
59282;DHT22;45054;52.062;10.010;2023-04-15T13:05:37;8.40;99.90
59282;DHT22;45054;52.062;10.010;2023-04-15T13:08:03;8.40;99.90
59282;DHT22;45054;52.062;10.010;2023-04-15T13:10:28;8.40;99.90
59282;DHT22;45054;52.062;10.010;2023-04-15T13:12:54;8.50;99.90
59282;DHT22;45054;52.062;10.010;2023-04-15T13:15:19;8.50;99.90
59282;DHT22;45054;52.062;10.010;2023-04-15T13:17:45;8.50;99.90
59282;DHT22;45054;52.062;10.010;2023-04-15T13:20:10;8.60;99.90
59282;DHT22;45054;52.062;10.010;2023-04-15T13:22:37;8.60;99.90
59282;DHT22;45054;52.062;10.010;2023-04-15T13:25:03;8.60;99.90
59282;DHT22;45054;52.062;10.010;2023-04-15T13:27:28;8.70;99.90
59282;DHT22;45054;52.062;10.010;2023-04-15T13:29:54;8.60;99.90
59282;DHT22;45054;52.062;10.010;2023-04-15T13:32:19;8.70;99.90
59282;DHT22;45054;52.062;10.010;2023-04-15T13:34:44;8.70;99.90
59282;DHT22;45054;52.062;10.010;2023-04-15T13:37:10;8.70;99.90
59282;DHT22;45054;52.062;10.010;2023-04-15T13:39:37;8.70;99.90
59282;DHT22;45054;52.062;10.010;2023-04-15T13:42:02;8.60;99.90
59282;DHT22;45054;52.062;10.010;2023-04-15T13:44:28;8.70;99.90
59282;DHT22;45054;52.062;10.010;2023-04-15T13:46:53;8.70;99.90
59282;DHT22;45054;52.062;10.010;2023-04-15T13:49:19;8.70;99.90
59282;DHT22;45054;52.062;10.010;2023-04-15T13:51:44;8.70;99.90
59282;DHT22;45054;52.062;10.010;2023-04-15T13:54:09;8.70;99.90
59282;DHT22;45054;52.062;10.010;2023-04-15T13:56:36;8.80;99.90
59282;DHT22;45054;52.062;10.010;2023-04-15T13:59:02;8.80;99.90
59282;DHT22;45054;52.062;10.010;2023-04-15T14:01:27;9.00;99.90
59282;DHT22;45054;52.062;10.010;2023-04-15T14:03:53;9.10;99.90
59282;DHT22;45054;52.062;10.010;2023-04-15T14:06:18;9.20;99.90
59282;DHT22;45054;52.062;10.010;2023-04-15T14:08:44;9.20;99.90
59282;DHT22;45054;52.062;10.010;2023-04-15T14:11:09;9.30;99.90
59282;DHT22;45054;52.062;10.010;2023-04-15T14:13:36;9.30;99.90
59282;DHT22;45054;52.062;10.010;2023-04-15T14:16:01;9.40;99.90
59282;DHT22;45054;52.062;10.010;2023-04-15T14:18:27;9.40;99.90
59282;DHT22;45054;52.062;10.010;2023-04-15T14:20:52;9.50;99.90
59282;DHT22;45054;52.062;10.010;2023-04-15T14:23:18;9.50;99.90
59282;DHT22;45054;52.062;10.010;2023-04-15T14:25:43;9.50;99.90
59282;DHT22;45054;52.062;10.010;2023-04-15T14:28:08;9.50;99.90
59282;DHT22;45054;52.062;10.010;2023-04-15T14:30:35;9.60;99.90
59282;DHT22;45054;52.062;10.010;2023-04-15T14:33:01;9.60;99.90
59282;DHT22;45054;52.062;10.010;2023-04-15T14:35:26;9.60;99.90
59282;DHT22;45054;52.062;10.010;2023-04-15T14:37:52;9.50;99.90
59282;DHT22;45054;52.062;10.010;2023-04-15T14:40:19;9.50;99.90
59282;DHT22;45054;52.062;10.010;2023-04-15T14:42:45;9.50;99.90
59282;DHT22;45054;52.062;10.010;2023-04-15T14:45:10;9.50;99.90
59282;DHT22;45054;52.062;10.010;2023-04-15T14:47:37;9.50;99.90
59282;DHT22;45054;52.062;10.010;2023-04-15T14:50:03;9.60;99.90
59282;DHT22;45054;52.062;10.010;2023-04-15T14:52:29;9.50;99.90
59282;DHT22;45054;52.062;10.010;2023-04-15T14:54:54;9.50;99.90
59282;DHT22;45054;52.062;10.010;2023-04-15T14:57:20;9.60;99.90
59282;DHT22;45054;52.062;10.010;2023-04-15T14:59:45;9.60;99.90
59282;DHT22;45054;52.062;10.010;2023-04-15T15:02:10;9.80;99.90
59282;DHT22;45054;52.062;10.010;2023-04-15T15:04:37;9.80;99.90
59282;DHT22;45054;52.062;10.010;2023-04-15T15:07:03;9.90;99.90
59282;DHT22;45054;52.062;10.010;2023-04-15T15:09:28;10.10;99.90
59282;DHT22;45054;52.062;10.010;2023-04-15T15:11:54;10.20;99.90
59282;DHT22;45054;52.062;10.010;2023-04-15T15:14:19;10.50;99.90
59282;DHT22;45054;52.062;10.010;2023-04-15T15:16:45;10.60;99.90
59282;DHT22;45054;52.062;10.010;2023-04-15T15:19:10;10.90;99.90
59282;DHT22;45054;52.062;10.010;2023-04-15T15:21:37;11.20;99.90